Capitol Logistics 948


EHAM
Schiphol International Airport
Amsterdam, NL
KIAD
Washington Dulles International Airport
Dulles, US

Route Details

Aircraft Information
Primary: Boeing 767-300BDSF
Backup: Not Available
Route Data
Distance: 3355nm
Sched. Duration: 8h 34m
Avg. Duration: 8h 74m (+39m)
Times Flown: 9
Recm'd Route: BERGI UL602 MIMVA L602 NALAX L46 ODNEK N110 ERKIT L602 GOW GOMUP NATD HOIST N596A TAFFY ENE BAF HYPER7
Planned Altitude: 32,000ft
Origin Wx: EHAM 030355Z 27006KT CAVOK 13/12 Q1007 NOSIG
Dest. Wx: KIAD 030352Z 17006KT 10SM SCT250 21/14 A2984 RMK AO2 SLP103 T02060139
Notes: SEASONAL FLIGHT | PERISHABLE CARGO

Financial History
Total Freight: 884,372lbs
Average Load: 98,264lbs/flt
Fuel Used: 928,500lbs
Avg. Fuel Used: 103,167lbs/flt
Fuel Expense: $742,800
Avg. Fuel Expense: $82,533
Avg. Fuel Cost: $0.80/lbs
Total Gross Income: $4,984,775
Pilot Pay: $2,211
Total Expenses: $538,824
Total Revenue: $3,681,868
Average Revenue: $553,863.93